createdAt,value
2023-02-12T00:00:58.988Z,68.53
2023-02-12T00:03:26.928Z,69.63
2023-02-12T00:05:55.019Z,66.97
2023-02-12T00:08:22.976Z,67.77
2023-02-12T00:10:50.781Z,65.17
2023-02-12T00:13:18.534Z,65.80
2023-02-12T00:15:47.776Z,70.77
2023-02-12T00:18:15.586Z,67.47
2023-02-12T00:20:43.352Z,67.23
2023-02-12T00:23:12.383Z,66.03
2023-02-12T00:25:42.905Z,61.27
2023-02-12T00:28:10.792Z,68.70
2023-02-12T00:30:38.717Z,62.87
2023-02-12T00:33:08.145Z,69.83
2023-02-12T00:35:35.945Z,63.77
2023-02-12T00:38:03.785Z,67.63
2023-02-12T00:40:31.636Z,64.57
2023-02-12T00:42:59.380Z,66.57
2023-02-12T00:45:27.226Z,68.17
2023-02-12T00:47:55.033Z,67.73
2023-02-12T00:50:24.205Z,65.73
2023-02-12T00:52:52.214Z,66.13
2023-02-12T00:55:20.412Z,66.57
2023-02-12T00:57:48.221Z,69.17
2023-02-12T01:00:17.331Z,65.77
2023-02-12T01:02:45.203Z,64.27
2023-02-12T01:05:13.006Z,62.33
2023-02-12T01:07:42.248Z,63.97
2023-02-12T01:10:10.557Z,67.47
2023-02-12T01:12:38.353Z,68.23
2023-02-12T01:15:06.564Z,60.43
2023-02-12T01:17:34.371Z,64.23
2023-02-12T01:20:02.131Z,69.17
2023-02-12T01:22:30.092Z,60.20
2023-02-12T01:24:59.299Z,61.60
2023-02-12T01:27:27.129Z,65.87
2023-02-12T01:29:56.878Z,65.00
2023-02-12T01:32:25.108Z,69.87
2023-02-12T01:34:53.734Z,67.10
2023-02-12T01:37:22.846Z,65.50
2023-02-12T01:39:50.622Z,66.33
2023-02-12T01:42:19.828Z,63.77
2023-02-12T01:45:34.476Z,61.67
2023-02-12T01:48:02.734Z,60.30
2023-02-12T01:50:30.847Z,62.70
2023-02-12T01:52:59.715Z,63.83
2023-02-12T01:55:27.771Z,64.73
2023-02-12T01:57:57.271Z,66.10
2023-02-12T02:00:26.293Z,65.23
2023-02-12T02:02:58.070Z,65.67
2023-02-12T02:05:32.189Z,60.03
2023-02-12T02:08:00.967Z,61.73
2023-02-12T02:10:30.637Z,62.80
2023-02-12T02:13:17.353Z,65.27
2023-02-12T02:15:50.318Z,60.23
2023-02-12T02:18:26.088Z,61.67
2023-02-12T02:21:19.923Z,59.63
2023-02-12T02:24:04.422Z,58.70
2023-02-12T02:26:53.276Z,64.00
2023-02-12T02:30:10.803Z,66.63
2023-02-12T02:32:44.959Z,60.40
2023-02-12T02:35:17.388Z,59.10
2023-02-12T02:37:50.166Z,58.57
2023-02-12T02:40:20.831Z,60.80
2023-02-12T02:42:55.429Z,60.50
2023-02-12T02:45:29.448Z,61.73
2023-02-12T02:48:01.119Z,66.97
2023-02-12T02:50:31.647Z,58.33
2023-02-12T02:53:03.562Z,62.20
2023-02-12T02:55:36.991Z,62.77
2023-02-12T02:58:12.856Z,58.73
2023-02-12T03:00:47.289Z,61.63
2023-02-12T03:03:23.171Z,58.87
2023-02-12T03:05:56.314Z,61.73
2023-02-12T03:08:27.914Z,58.90
2023-02-12T03:11:00.925Z,57.77
2023-02-12T03:13:33.801Z,59.57
2023-02-12T03:16:08.775Z,58.70
2023-02-12T03:18:42.734Z,58.37
2023-02-12T03:21:14.742Z,58.50
2023-02-12T03:23:49.581Z,62.33
2023-02-12T03:26:21.950Z,58.90
2023-02-12T03:28:50.207Z,63.27
2023-02-12T03:31:29.398Z,59.87
2023-02-12T03:34:07.075Z,61.37
2023-02-12T03:36:41.800Z,60.97
2023-02-12T03:39:14.638Z,63.13
2023-02-12T03:41:46.675Z,62.17
2023-02-12T03:44:21.284Z,57.07
2023-02-12T03:47:00.325Z,63.67
2023-02-12T03:49:33.315Z,65.80
2023-02-12T03:52:01.217Z,63.57
2023-02-12T03:54:29.035Z,60.00
2023-02-12T03:57:00.826Z,60.10
2023-02-12T03:59:29.280Z,59.17
2023-02-12T04:02:00.590Z,61.87
2023-02-12T04:04:29.148Z,58.90
2023-02-12T04:06:57.555Z,58.60
2023-02-12T04:09:27.826Z,57.40
2023-02-12T04:12:07.906Z,60.03
2023-02-12T04:14:45.432Z,54.53
2023-02-12T04:17:23.377Z,58.77
2023-02-12T04:20:03.687Z,57.93
2023-02-12T04:22:46.554Z,56.33
2023-02-12T04:25:24.332Z,53.90
2023-02-12T04:28:00.174Z,55.93
2023-02-12T04:30:33.318Z,56.87
2023-02-12T04:33:05.379Z,56.13
2023-02-12T04:35:36.631Z,59.03
2023-02-12T04:38:10.637Z,59.73
2023-02-12T04:40:41.242Z,55.43
2023-02-12T04:43:09.631Z,55.20
2023-02-12T04:45:38.771Z,50.90
2023-02-12T04:48:08.261Z,55.00
2023-02-12T04:50:40.859Z,53.27
2023-02-12T04:53:09.887Z,50.90
2023-02-12T04:55:37.942Z,54.70
2023-02-12T04:58:05.914Z,53.13
2023-02-12T05:00:33.919Z,54.27
2023-02-12T05:03:01.779Z,52.93
2023-02-12T05:05:30.907Z,55.83
2023-02-12T05:07:58.704Z,54.47
2023-02-12T05:10:26.508Z,53.37
2023-02-12T05:12:54.835Z,51.30
2023-02-12T05:15:23.204Z,54.67
2023-02-12T05:17:50.950Z,54.83
2023-02-12T05:20:18.900Z,52.13
2023-02-12T05:22:51.960Z,54.93
2023-02-12T05:25:19.760Z,53.40
2023-02-12T05:27:47.637Z,54.00
2023-02-12T05:30:15.570Z,54.43
2023-02-12T05:32:43.365Z,46.53
2023-02-12T05:35:11.134Z,50.07
2023-02-12T05:37:39.024Z,57.63
2023-02-12T05:40:09.749Z,55.33
2023-02-12T05:42:37.500Z,51.53
2023-02-12T05:45:06.019Z,53.80
2023-02-12T05:47:33.806Z,53.30
2023-02-12T05:50:01.554Z,51.93
2023-02-12T05:52:29.368Z,52.17
2023-02-12T05:54:57.140Z,53.97
2023-02-12T05:57:26.424Z,50.87
2023-02-12T05:59:54.373Z,48.17
2023-02-12T06:02:22.121Z,56.37
2023-02-12T06:04:49.907Z,51.03
2023-02-12T06:07:17.727Z,51.20
2023-02-12T06:09:45.576Z,50.03
2023-02-12T06:12:13.331Z,53.93
2023-02-12T06:14:43.179Z,51.43
2023-02-12T06:17:10.952Z,52.40
2023-02-12T06:19:38.749Z,50.00
2023-02-12T06:22:07.229Z,52.80
2023-02-12T06:24:35.173Z,52.07
2023-02-12T06:27:03.003Z,51.20
2023-02-12T06:29:30.915Z,51.37
2023-02-12T06:32:00.105Z,49.10
2023-02-12T06:34:28.117Z,52.00
2023-02-12T06:36:56.028Z,49.27
2023-02-12T06:39:23.781Z,50.13
2023-02-12T06:41:51.526Z,54.10
2023-02-12T06:44:19.362Z,53.23
2023-02-12T06:46:47.218Z,53.87
2023-02-12T06:49:16.636Z,53.20
2023-02-12T06:51:44.534Z,50.23
2023-02-12T06:54:14.732Z,56.10
2023-02-12T06:56:42.562Z,47.93
2023-02-12T06:59:14.513Z,47.07
2023-02-12T07:01:42.819Z,47.63
2023-02-12T07:04:11.858Z,48.90
2023-02-12T07:06:41.295Z,49.10
2023-02-12T07:09:09.059Z,48.23
2023-02-12T07:11:39.037Z,54.00
2023-02-12T07:14:07.391Z,52.90
2023-02-12T07:16:35.480Z,52.87
2023-02-12T07:19:03.364Z,48.57
2023-02-12T07:21:31.975Z,48.97
2023-02-12T07:24:01.198Z,49.37
2023-02-12T07:26:29.016Z,45.47
2023-02-12T07:28:58.582Z,51.37
2023-02-12T07:31:26.672Z,47.53
2023-02-12T07:33:55.649Z,48.87
2023-02-12T07:36:24.519Z,53.60
2023-02-12T07:38:52.301Z,50.87
2023-02-12T07:41:23.383Z,48.60
2023-02-12T07:43:55.788Z,45.73
2023-02-12T07:46:29.656Z,47.63
2023-02-12T07:48:58.462Z,43.90
2023-02-12T07:51:26.470Z,48.23
2023-02-12T07:53:54.525Z,46.23
2023-02-12T07:56:25.665Z,48.53
2023-02-12T07:58:54.560Z,48.50
2023-02-12T08:01:24.478Z,49.53
2023-02-12T08:03:52.642Z,48.50
2023-02-12T08:06:23.027Z,53.85
2023-02-12T08:08:52.963Z,46.97
2023-02-12T08:11:20.826Z,48.37
2023-02-12T08:13:49.970Z,48.73
2023-02-12T08:16:19.846Z,50.73
2023-02-12T08:18:48.415Z,46.73
2023-02-12T08:21:18.621Z,47.93
2023-02-12T08:23:49.872Z,43.85
2023-02-12T08:26:20.167Z,45.60
2023-02-12T08:28:51.442Z,44.15
2023-02-12T08:31:21.641Z,44.83
2023-02-12T08:33:51.266Z,44.53
2023-02-12T08:36:20.748Z,44.67
2023-02-12T08:38:48.982Z,39.78
2023-02-12T08:41:20.605Z,43.97
2023-02-12T08:43:53.216Z,41.80
2023-02-12T08:46:22.804Z,40.40
2023-02-12T08:48:54.011Z,41.13
2023-02-12T08:51:23.852Z,41.65
2023-02-12T08:53:55.437Z,40.33
2023-02-12T08:56:24.554Z,39.63
2023-02-12T08:58:54.163Z,38.13
2023-02-12T09:01:23.680Z,39.80
2023-02-12T09:03:52.513Z,39.80
2023-02-12T09:06:22.687Z,38.63
2023-02-12T09:08:52.614Z,36.85
2023-02-12T09:11:24.380Z,37.60
2023-02-12T09:13:54.341Z,37.97
2023-02-12T09:16:22.145Z,40.03
2023-02-12T09:18:50.051Z,37.67
2023-02-12T09:21:19.775Z,37.88
2023-02-12T09:23:48.473Z,38.90
2023-02-12T09:26:20.742Z,35.33
2023-02-12T09:28:49.856Z,38.03
2023-02-12T09:31:23.049Z,42.15
2023-02-12T09:33:54.707Z,40.67
2023-02-12T09:36:23.257Z,37.72
2023-02-12T09:38:51.098Z,38.47
2023-02-12T09:41:36.131Z,37.72
2023-02-12T09:44:08.893Z,36.15
2023-02-12T09:46:46.297Z,36.67
2023-02-12T09:49:19.313Z,39.22
2023-02-12T09:51:53.986Z,39.22
2023-02-12T09:54:24.500Z,36.38
2023-02-12T09:56:55.506Z,35.90
2023-02-12T09:59:32.739Z,34.65
2023-02-12T10:02:02.233Z,29.95
2023-02-12T10:04:30.115Z,33.85
2023-02-12T10:07:07.995Z,34.83
2023-02-12T10:09:48.325Z,35.83
2023-02-12T10:12:27.615Z,36.30
2023-02-12T10:15:12.765Z,31.58
2023-02-12T10:17:48.984Z,36.55
2023-02-12T10:20:47.131Z,33.63
2023-02-12T10:23:29.625Z,34.38
2023-02-12T10:25:59.914Z,36.58
2023-02-12T10:28:40.821Z,33.83
2023-02-12T10:31:16.306Z,28.20
2023-02-12T10:33:48.891Z,25.60
2023-02-12T10:36:35.659Z,32.50
2023-02-12T10:39:08.340Z,28.10
2023-02-12T10:41:40.883Z,26.00
2023-02-12T10:44:10.747Z,26.67
2023-02-12T10:46:38.731Z,26.08
2023-02-12T10:49:12.532Z,26.98
2023-02-12T10:51:59.925Z,24.85
2023-02-12T10:54:40.957Z,26.25
2023-02-12T10:57:15.816Z,20.70
2023-02-12T10:59:45.794Z,22.85
2023-02-12T11:02:21.068Z,20.73
2023-02-12T11:04:50.731Z,22.33
2023-02-12T11:07:19.110Z,23.65
2023-02-12T11:09:48.765Z,22.83
2023-02-12T11:12:32.191Z,21.35
2023-02-12T11:15:02.238Z,26.52
2023-02-12T11:17:36.242Z,25.02
2023-02-12T11:20:25.229Z,28.80
2023-02-12T11:22:56.211Z,28.23
2023-02-12T11:25:26.052Z,30.35
2023-02-12T11:28:13.591Z,31.15
2023-02-12T11:30:51.604Z,27.88
2023-02-12T11:33:26.250Z,31.55
2023-02-12T11:35:57.795Z,28.02
2023-02-12T11:38:28.934Z,28.27
2023-02-12T11:41:00.878Z,26.17
2023-02-12T11:43:31.187Z,29.52
2023-02-12T11:46:01.549Z,28.90
2023-02-12T11:48:34.668Z,31.00
2023-02-12T11:51:06.161Z,30.52
2023-02-12T11:53:36.475Z,30.40
2023-02-12T11:56:07.074Z,29.20
2023-02-12T11:58:35.204Z,26.77
2023-02-12T12:01:08.968Z,33.97
2023-02-12T12:03:45.002Z,27.83
2023-02-12T12:06:35.940Z,27.02
2023-02-12T12:09:11.553Z,28.00
2023-02-12T12:11:47.873Z,29.23
2023-02-12T12:14:25.522Z,28.77
2023-02-12T12:17:14.624Z,31.73
2023-02-12T12:19:56.036Z,30.60
2023-02-12T12:22:47.818Z,31.15
2023-02-12T12:25:24.015Z,27.58
2023-02-12T12:28:03.791Z,28.15
2023-02-12T12:30:42.223Z,30.30
2023-02-12T12:33:18.366Z,29.80
2023-02-12T12:35:57.370Z,29.42
2023-02-12T12:38:41.527Z,29.00
2023-02-12T12:41:20.940Z,30.83
2023-02-12T12:44:04.034Z,28.92
2023-02-12T12:46:49.360Z,30.20
2023-02-12T12:49:41.642Z,29.27
2023-02-12T12:52:21.253Z,26.42
2023-02-12T12:55:08.588Z,30.48
2023-02-12T12:57:47.717Z,30.38
2023-02-12T13:00:25.955Z,29.42
2023-02-12T13:03:21.429Z,28.63
2023-02-12T13:05:59.803Z,31.98
2023-02-12T13:08:40.916Z,28.80
2023-02-12T13:11:20.246Z,34.60
2023-02-12T13:13:51.498Z,28.17
2023-02-12T13:16:24.137Z,25.40
2023-02-12T13:18:59.965Z,29.83
2023-02-12T13:21:39.457Z,26.40
2023-02-12T13:24:22.122Z,31.17
2023-02-12T13:26:55.814Z,34.97
2023-02-12T13:29:28.917Z,34.38
2023-02-12T13:32:00.370Z,36.28
2023-02-12T13:34:30.791Z,32.88
2023-02-12T13:37:01.668Z,34.58
2023-02-12T13:39:34.287Z,35.13
2023-02-12T13:42:16.639Z,34.90
2023-02-12T13:44:52.035Z,30.90
2023-02-12T13:47:30.603Z,33.50
2023-02-12T13:50:04.479Z,30.92
2023-02-12T13:52:40.639Z,30.30
2023-02-12T13:55:26.715Z,31.02
2023-02-12T13:58:27.941Z,31.75
2023-02-12T14:01:00.715Z,30.73
2023-02-12T14:03:30.804Z,26.38
2023-02-12T14:06:17.409Z,28.58
2023-02-12T14:08:48.374Z,26.92
2023-02-12T14:11:19.231Z,25.08
2023-02-12T14:13:53.533Z,26.40
2023-02-12T14:16:40.849Z,28.85
2023-02-12T14:19:57.456Z,29.20
2023-02-12T14:23:01.299Z,27.92
2023-02-12T14:25:45.072Z,26.38
2023-02-12T14:28:24.319Z,28.02
2023-02-12T14:31:35.348Z,22.38
2023-02-12T14:34:39.006Z,25.23
2023-02-12T14:37:17.828Z,28.73
2023-02-12T14:39:46.311Z,27.25
2023-02-12T14:42:55.387Z,29.17
2023-02-12T14:45:32.628Z,28.45
2023-02-12T14:48:03.255Z,25.15
2023-02-12T14:50:39.185Z,29.90
2023-02-12T14:53:27.973Z,29.88
2023-02-12T14:55:57.621Z,27.73
2023-02-12T14:58:27.760Z,36.67
2023-02-12T15:00:57.442Z,33.33
2023-02-12T15:03:34.993Z,33.55
2023-02-12T15:06:09.760Z,38.35
2023-02-12T15:08:44.354Z,33.92
2023-02-12T15:11:29.631Z,33.78
2023-02-12T15:14:02.990Z,32.85
2023-02-12T15:16:46.868Z,33.15
2023-02-12T15:19:29.472Z,28.52
2023-02-12T15:21:57.797Z,31.27
2023-02-12T15:24:27.045Z,32.90
2023-02-12T15:26:57.496Z,31.23
2023-02-12T15:29:28.262Z,32.30
2023-02-12T15:31:57.960Z,32.10
2023-02-12T15:34:31.033Z,30.50
2023-02-12T15:37:02.054Z,31.15
2023-02-12T15:39:44.468Z,29.58
2023-02-12T15:42:26.294Z,29.25
2023-02-12T15:45:03.579Z,30.17
2023-02-12T15:47:31.324Z,31.48
2023-02-12T15:50:01.686Z,32.00
2023-02-12T15:52:35.979Z,29.67
2023-02-12T15:55:05.909Z,29.50
2023-02-12T15:57:34.575Z,30.80
2023-02-12T16:00:07.878Z,32.20
2023-02-12T16:02:40.643Z,34.40
2023-02-12T16:05:16.973Z,35.00
2023-02-12T16:07:46.670Z,32.50
2023-02-12T16:10:16.848Z,34.78
2023-02-12T16:12:45.754Z,31.38
2023-02-12T16:15:26.269Z,31.20
2023-02-12T16:17:54.178Z,33.85
2023-02-12T16:20:27.133Z,34.85
2023-02-12T16:22:55.947Z,33.55
2023-02-12T16:25:26.420Z,31.70
2023-02-12T16:28:06.609Z,33.35
2023-02-12T16:30:38.677Z,33.33
2023-02-12T16:33:26.692Z,34.45
2023-02-12T16:36:03.319Z,33.28
2023-02-12T16:38:42.939Z,33.85
2023-02-12T16:41:24.471Z,30.08
2023-02-12T16:44:12.878Z,35.45
2023-02-12T16:46:48.257Z,31.50
2023-02-12T16:49:18.084Z,30.40
2023-02-12T16:51:48.678Z,31.35
2023-02-12T16:54:29.102Z,31.67
2023-02-12T16:56:57.212Z,31.50
2023-02-12T16:59:25.110Z,31.63
2023-02-12T17:02:01.067Z,30.60
2023-02-12T17:04:29.047Z,30.33
2023-02-12T17:06:58.984Z,31.50
2023-02-12T17:09:26.744Z,32.33
2023-02-12T17:11:54.507Z,31.48
2023-02-12T17:14:22.261Z,30.52
2023-02-12T17:16:50.403Z,29.45
2023-02-12T17:19:18.369Z,31.58
2023-02-12T17:21:49.485Z,30.65
2023-02-12T17:24:22.188Z,32.25
2023-02-12T17:26:51.342Z,28.97
2023-02-12T17:29:19.770Z,30.63
2023-02-12T17:31:48.343Z,32.33
2023-02-12T17:34:16.680Z,40.22
2023-02-12T17:36:44.496Z,39.45
2023-02-12T17:39:14.333Z,32.78
2023-02-12T17:41:44.163Z,31.88
2023-02-12T17:44:13.284Z,30.15
2023-02-12T17:46:41.124Z,31.48
2023-02-12T17:49:09.008Z,31.10
2023-02-12T17:51:36.863Z,33.30
2023-02-12T17:54:05.102Z,28.90
2023-02-12T17:56:33.200Z,29.10
2023-02-12T17:59:02.601Z,31.30
2023-02-12T18:01:30.996Z,29.58
2023-02-12T18:03:59.575Z,29.00
2023-02-12T18:06:29.171Z,28.88
2023-02-12T18:08:58.611Z,31.30
2023-02-12T18:11:27.632Z,29.40
2023-02-12T18:13:57.746Z,29.05
2023-02-12T18:16:30.451Z,30.58
2023-02-12T18:18:59.876Z,29.92
2023-02-12T18:21:28.222Z,29.17
2023-02-12T18:23:55.984Z,29.25
2023-02-12T18:26:24.261Z,29.23
2023-02-12T18:28:53.822Z,28.50
2023-02-12T18:31:22.020Z,27.38
2023-02-12T18:33:51.372Z,27.73
2023-02-12T18:36:21.072Z,28.17
2023-02-12T18:38:51.682Z,24.95
2023-02-12T18:41:21.090Z,26.42
2023-02-12T18:43:49.085Z,27.55
2023-02-12T18:46:19.407Z,28.97
2023-02-12T18:48:48.009Z,28.43
2023-02-12T18:51:19.362Z,28.35
2023-02-12T18:53:47.120Z,29.20
2023-02-12T18:56:15.310Z,26.98
2023-02-12T18:58:43.137Z,27.30
2023-02-12T19:01:16.167Z,25.47
2023-02-12T19:03:44.145Z,25.88
2023-02-12T19:06:12.542Z,25.10
2023-02-12T19:08:41.714Z,26.20
2023-02-12T19:11:11.286Z,35.60
2023-02-12T19:13:39.948Z,30.47
2023-02-12T19:16:08.832Z,28.90
2023-02-12T19:18:36.611Z,27.03
2023-02-12T19:21:07.333Z,49.97
2023-02-12T19:23:35.513Z,45.83
2023-02-12T19:26:05.762Z,36.63
2023-02-12T19:28:34.426Z,28.45
2023-02-12T19:31:10.231Z,25.70
2023-02-12T19:33:39.028Z,24.07
2023-02-12T19:36:07.662Z,22.73
2023-02-12T19:38:35.482Z,24.93
2023-02-12T19:41:05.712Z,23.90
2023-02-12T19:43:33.870Z,25.40
2023-02-12T19:46:02.692Z,23.13
2023-02-12T19:48:30.768Z,24.50
2023-02-12T19:50:58.906Z,23.80
2023-02-12T19:53:27.386Z,25.47
2023-02-12T19:55:55.857Z,25.73
2023-02-12T19:58:24.977Z,25.23
2023-02-12T20:00:52.980Z,25.37
2023-02-12T20:03:23.007Z,26.17
2023-02-12T20:05:53.106Z,26.40
2023-02-12T20:08:21.011Z,24.50
2023-02-12T20:10:48.791Z,25.67
2023-02-12T20:13:18.851Z,24.70
2023-02-12T20:15:48.000Z,24.67
2023-02-12T20:18:15.774Z,24.67
2023-02-12T20:20:43.598Z,23.60
2023-02-12T20:23:11.376Z,23.83
2023-02-12T20:25:43.789Z,23.57
2023-02-12T20:28:12.244Z,21.93
2023-02-12T20:30:41.206Z,23.63
2023-02-12T20:33:11.061Z,23.70
2023-02-12T20:35:38.844Z,24.07
2023-02-12T20:38:07.526Z,21.87
2023-02-12T20:40:35.413Z,25.23
2023-02-12T20:43:03.211Z,24.83
2023-02-12T20:45:31.142Z,29.07
2023-02-12T20:47:58.897Z,44.20
2023-02-12T20:50:28.140Z,27.50
2023-02-12T20:52:56.047Z,26.53
2023-02-12T20:55:23.985Z,24.10
2023-02-12T20:57:51.789Z,25.07
2023-02-12T21:00:20.043Z,24.27
2023-02-12T21:02:48.082Z,25.27
2023-02-12T21:05:16.053Z,24.83
2023-02-12T21:07:46.067Z,25.73
2023-02-12T21:10:13.854Z,23.30
2023-02-12T21:12:41.670Z,24.85
2023-02-12T21:15:10.170Z,24.90
2023-02-12T21:17:37.947Z,23.10
2023-02-12T21:20:07.754Z,28.33
2023-02-12T21:22:35.554Z,26.75
2023-02-12T21:25:05.051Z,24.47
2023-02-12T21:27:32.944Z,26.93
2023-02-12T21:30:00.840Z,27.17
2023-02-12T21:32:28.782Z,24.70
2023-02-12T21:34:56.683Z,23.40
2023-02-12T21:37:24.489Z,25.20
2023-02-12T21:39:52.382Z,26.00
2023-02-12T21:42:21.528Z,23.83
2023-02-12T21:44:49.297Z,26.70
2023-02-12T21:47:17.074Z,24.97
2023-02-12T21:49:44.889Z,25.90
2023-02-12T21:52:12.681Z,24.00
2023-02-12T21:54:40.522Z,24.97
2023-02-12T21:57:08.346Z,25.50
2023-02-12T21:59:37.515Z,24.17
2023-02-12T22:02:05.988Z,23.17
2023-02-12T22:04:33.965Z,25.30
2023-02-12T22:07:03.301Z,24.83
2023-02-12T22:09:32.606Z,22.03
2023-02-12T22:12:00.395Z,24.27
2023-02-12T22:14:28.149Z,25.67
2023-02-12T22:16:57.415Z,23.63
2023-02-12T22:19:25.330Z,23.23
2023-02-12T22:21:53.149Z,25.70
2023-02-12T22:24:21.758Z,21.30
2023-02-12T22:26:49.707Z,22.63
2023-02-12T22:29:18.263Z,22.13
2023-02-12T22:31:47.692Z,22.80
2023-02-12T22:34:19.330Z,22.83
2023-02-12T22:36:48.090Z,25.40
2023-02-12T22:39:17.463Z,24.70
2023-02-12T22:41:45.808Z,24.43
2023-02-12T22:44:14.767Z,23.53
2023-02-12T22:46:43.348Z,25.20
2023-02-12T22:49:11.580Z,24.53
2023-02-12T22:51:41.069Z,24.87
2023-02-12T22:54:12.301Z,23.60
2023-02-12T22:56:40.133Z,25.33
2023-02-12T22:59:08.162Z,24.97
2023-02-12T23:01:35.948Z,21.87
2023-02-12T23:04:03.977Z,24.37
2023-02-12T23:06:33.070Z,25.63
2023-02-12T23:09:04.501Z,26.13
2023-02-12T23:11:33.901Z,25.77
2023-02-12T23:14:01.894Z,22.00
2023-02-12T23:16:30.249Z,26.00
2023-02-12T23:18:59.523Z,24.73
2023-02-12T23:21:28.867Z,22.13
2023-02-12T23:23:58.979Z,25.33
2023-02-12T23:26:28.654Z,24.97
2023-02-12T23:28:56.972Z,23.87
2023-02-12T23:31:25.488Z,23.07
2023-02-12T23:33:53.446Z,22.30
2023-02-12T23:36:21.227Z,24.13
2023-02-12T23:38:48.949Z,25.57
2023-02-12T23:41:16.790Z,22.63
2023-02-12T23:43:45.998Z,26.60
2023-02-12T23:46:13.868Z,27.20
2023-02-12T23:48:41.669Z,26.53
2023-02-12T23:51:10.124Z,27.27
2023-02-12T23:53:37.930Z,29.87
2023-02-12T23:56:06.850Z,26.30
2023-02-12T23:58:34.603Z,27.03
